Time;durP1;ratioP1;P1;durP2;ratioP2;P2;SDS_P1;SDS_P2;PMS_P1;PMS_P2;Temp;Humidity;BMP_temperature;BMP_pressure;BME280_temperature;BME280_humidity;BME280_pressure;Samples;Min_cycle;Max_cycle;Signal;HPM_P1;HPM_P2
2022/04/09 00:01:36;;;;;;;;;0.00;0.00;;;;;;;;2;261077815;261077815;-76
2022/04/09 00:11:04;;;;;;;;;0.00;0.00;;;;;;;;2;288084111;288084111;-75
2022/04/09 00:19:19;;;;;;;;;0.00;0.00;;;;;;;;2;261075508;261075508;-76
2022/04/09 00:28:47;;;;;;;;;0.00;0.00;;;;;;;;2;288083230;288083230;-76
2022/04/09 00:37:02;;;;;;;;;0.00;0.00;;;;;;;;2;261078189;261078189;-76
2022/04/09 00:46:30;;;;;;;;;0.00;0.00;;;;;;;;2;288083181;288083181;-75
2022/04/09 00:54:45;;;;;;;;;0.00;0.00;;;;;;;;2;261076918;261076918;-75
2022/04/09 01:04:13;;;;;;;;;0.00;0.00;;;;;;;;2;288085856;288085856;-75
2022/04/09 01:12:29;;;;;;;;;0.00;0.00;;;;;;;;2;261076946;261076946;-75
2022/04/09 01:21:57;;;;;;;;;0.00;0.00;;;;;;;;2;288084006;288084006;-75
2022/04/09 01:30:13;;;;;;;;;0.00;0.00;;;;;;;;2;261076674;261076674;-75
2022/04/09 01:39:40;;;;;;;;;0.00;0.00;;;;;;;;2;288085366;288085366;-75
2022/04/09 01:47:57;;;;;;;;;0.00;0.00;;;;;;;;2;261078603;261078603;-75
2022/04/09 01:57:24;;;;;;;;;0.00;0.00;;;;;;;;2;288086473;288086473;-75
2022/04/09 02:05:40;;;;;;;;;0.00;0.00;;;;;;;;2;261077221;261077221;-75
2022/04/09 02:15:09;;;;;;;;;0.00;0.00;;;;;;;;2;288081156;288081156;-74
2022/04/09 02:23:25;;;;;;;;;0.00;0.00;;;;;;;;2;261076621;261076621;-75
2022/04/09 02:32:52;;;;;;;;;0.00;0.00;;;;;;;;2;288083148;288083148;-75
2022/04/09 02:41:09;;;;;;;;;0.00;0.00;;;;;;;;2;261075991;261075991;-75
2022/04/09 02:50:36;;;;;;;;;0.00;0.00;;;;;;;;2;288083694;288083694;-75
2022/04/09 02:58:52;;;;;;;;;0.00;0.00;;;;;;;;2;261079970;261079970;-75
2022/04/09 03:08:19;;;;;;;;;0.00;0.00;;;;;;;;2;288086930;288086930;-75
2022/04/09 03:16:35;;;;;;;;;0.00;0.00;;;;;;;;2;261078495;261078495;-75
2022/04/09 03:26:02;;;;;;;;;0.00;0.00;;;;;;;;2;288083462;288083462;-75
2022/04/09 03:34:18;;;;;;;;;0.00;0.00;;;;;;;;2;261076534;261076534;-75
2022/04/09 03:43:46;;;;;;;;;0.00;0.00;;;;;;;;2;288084256;288084256;-77
2022/04/09 03:52:01;;;;;;;;;0.00;0.00;;;;;;;;2;261078267;261078267;-76
2022/04/09 04:01:29;;;;;;;;;0.00;0.00;;;;;;;;2;288085330;288085330;-76
2022/04/09 04:09:44;;;;;;;;;0.00;0.00;;;;;;;;2;261077568;261077568;-77
2022/04/09 04:19:12;;;;;;;;;0.00;0.00;;;;;;;;2;288083339;288083339;-78
2022/04/09 04:27:27;;;;;;;;;0.00;0.00;;;;;;;;2;261078279;261078279;-76
2022/04/09 04:36:55;;;;;;;;;0.00;0.00;;;;;;;;2;288084533;288084533;-76
2022/04/09 04:45:11;;;;;;;;;0.00;0.00;;;;;;;;2;261075447;261075447;-75
2022/04/09 19:15:51;;;;;;;;;0.00;0.00;;;;;;;;176174;27;261078658;-77
2022/04/09 19:25:20;;;;;;;;;0.00;0.00;;;;;;;;2;288085103;288085103;-76
2022/04/09 19:33:36;;;;;;;;;0.00;0.00;;;;;;;;2;261076854;261076854;-78
2022/04/09 19:43:03;;;;;;;;;0.00;0.00;;;;;;;;2;288084771;288084771;-77
2022/04/09 19:51:19;;;;;;;;;0.00;0.00;;;;;;;;2;261076594;261076594;-78
2022/04/09 20:00:46;;;;;;;;;0.00;0.00;;;;;;;;2;288083659;288083659;-78
2022/04/09 20:09:02;;;;;;;;;0.00;0.00;;;;;;;;2;261077467;261077467;-79
2022/04/09 20:26:48;;;;;;;;;0.00;0.00;;;;;;;;2;261105393;261105393;-77
2022/04/09 20:36:16;;;;;;;;;0.00;0.00;;;;;;;;2;288085456;288085456;-78
2022/04/09 20:44:32;;;;;;;;;0.00;0.00;;;;;;;;2;261077736;261077736;-77
2022/04/09 20:53:59;;;;;;;;;0.00;0.00;;;;;;;;2;288085469;288085469;-77
2022/04/09 21:02:32;;;;;;;;;0.00;0.00;;;;;;;;2;261074803;261074803;-82
2022/04/09 21:12:03;;;;;;;;;0.00;0.00;;;;;;;;2;288085138;288085138;-81
2022/04/09 21:20:19;;;;;;;;;0.00;0.00;;;;;;;;2;261078567;261078567;-78
2022/04/09 21:29:47;;;;;;;;;0.00;0.00;;;;;;;;2;288083519;288083519;-79
2022/04/09 21:38:02;;;;;;;;;0.00;0.00;;;;;;;;2;261076610;261076610;-78
2022/04/09 21:55:46;;;;;;;;;0.00;0.00;;;;;;;;2;261104130;261104130;-79
2022/04/09 22:05:16;;;;;;;;;0.00;0.00;;;;;;;;2;288083842;288083842;-79
2022/04/09 22:13:31;;;;;;;;;0.00;0.00;;;;;;;;2;261076634;261076634;-81
2022/04/09 22:22:59;;;;;;;;;0.00;0.00;;;;;;;;2;288083658;288083658;-79
2022/04/09 22:31:14;;;;;;;;;0.00;0.00;;;;;;;;2;261078031;261078031;-78
2022/04/09 22:40:42;;;;;;;;;0.00;0.00;;;;;;;;2;288086927;288086927;-77
2022/04/09 22:48:57;;;;;;;;;0.00;0.00;;;;;;;;2;261076981;261076981;-81
